Time;durP1;ratioP1;P1;durP2;ratioP2;P2;SDS_P1;SDS_P2;PMS_P1;PMS_P2;Temp;Humidity;BMP_temperature;BMP_pressure;BME280_temperature;BME280_humidity;BME280_pressure;Samples;Min_cycle;Max_cycle;Signal;HPM_P1;HPM_P2
2022/05/04 00:01:04;;;;;;;1.73;1.50;;;10.00;99.90;;;;;;5033494;28;20035;-38
2022/05/04 00:03:30;;;;;;;4.55;1.63;;;9.90;99.90;;;;;;5033417;28;20025;-31
2022/05/04 00:05:55;;;;;;;10.98;1.65;;;9.80;99.90;;;;;;5033698;28;20386;-30
2022/05/04 00:08:21;;;;;;;9.75;2.22;;;9.80;99.90;;;;;;5033391;28;20029;-30
2022/05/04 00:10:46;;;;;;;2.47;1.58;;;9.80;99.90;;;;;;5033203;28;20025;-33
2022/05/04 00:13:12;;;;;;;4.55;2.05;;;9.70;99.90;;;;;;5033119;28;20057;-32
2022/05/04 00:15:38;;;;;;;6.40;2.30;;;9.80;99.90;;;;;;5033318;28;20032;-29
2022/05/04 00:18:04;;;;;;;7.20;2.08;;;9.70;99.90;;;;;;5032024;28;20022;-31
2022/05/04 00:20:29;;;;;;;9.30;2.28;;;9.80;99.90;;;;;;5033280;28;20501;-28
2022/05/04 00:22:55;;;;;;;5.38;1.77;;;9.70;99.90;;;;;;5033222;28;20045;-33
2022/05/04 00:25:21;;;;;;;5.85;1.70;;;9.70;99.90;;;;;;5033199;28;20028;-30
2022/05/04 00:27:46;;;;;;;6.05;2.00;;;9.70;99.90;;;;;;5033103;28;20116;-30
2022/05/04 00:30:12;;;;;;;4.75;2.10;;;9.70;99.90;;;;;;5031470;28;20461;-44
2022/05/04 00:32:38;;;;;;;10.65;2.35;;;9.70;99.90;;;;;;5032991;28;20030;-31
2022/05/04 00:35:03;;;;;;;4.13;1.58;;;9.60;99.90;;;;;;5032909;28;20029;-32
2022/05/04 00:37:29;;;;;;;4.25;1.67;;;9.60;99.90;;;;;;5033067;28;20079;-32
2022/05/04 00:39:55;;;;;;;10.25;2.35;;;9.60;99.90;;;;;;5033276;28;20036;-34
2022/05/04 00:42:21;;;;;;;3.78;2.10;;;9.60;99.90;;;;;;5033250;28;20390;-32
2022/05/04 00:44:52;;;;;;;3.90;1.92;;;9.50;99.90;;;;;;5032992;28;20041;-29
2022/05/04 00:47:18;;;;;;;4.75;1.80;;;9.50;99.90;;;;;;5033255;28;20477;-34
2022/05/04 00:49:49;;;;;;;5.25;1.70;;;9.50;99.90;;;;;;5033011;28;20095;-31
2022/05/04 00:52:16;;;;;;;3.78;1.65;;;9.50;99.90;;;;;;5032953;28;20496;-37
2022/05/04 00:54:50;;;;;;;6.17;1.60;;;9.50;99.90;;;;;;5033130;28;20048;-38
2022/05/04 00:58:54;;;;;;;3.85;1.70;;;9.60;99.90;;;;;;5032937;28;20030;-37
2022/05/04 01:00:04;;;;;;;3.63;2.00;;;9.60;99.90;;;;;;5032892;28;20021;-28
2022/05/04 01:02:30;;;;;;;2.55;1.52;;;9.60;99.90;;;;;;5034665;28;20481;-29
2022/05/04 01:04:55;;;;;;;9.40;1.83;;;9.50;99.90;;;;;;5036800;28;20037;-30
2022/05/04 01:07:21;;;;;;;5.38;1.50;;;9.50;99.90;;;;;;5036738;28;20061;-36
2022/05/04 01:09:47;;;;;;;5.32;2.03;;;9.50;99.90;;;;;;5036973;28;20042;-30
2022/05/04 01:12:13;;;;;;;5.38;1.63;;;9.60;99.90;;;;;;5036466;28;20052;-30
2022/05/04 01:14:38;;;;;;;5.53;1.52;;;9.60;99.90;;;;;;5036553;28;20474;-29
2022/05/04 01:17:04;;;;;;;1.75;1.30;;;9.60;99.90;;;;;;5035201;28;20116;-31
2022/05/04 01:19:30;;;;;;;5.43;1.52;;;9.60;99.90;;;;;;5036531;28;20029;-36
2022/05/04 01:21:55;;;;;;;5.53;1.73;;;9.60;99.90;;;;;;5036466;28;20025;-49
2022/05/04 01:24:21;;;;;;;4.85;2.10;;;9.60;99.90;;;;;;5035175;28;20033;-44
2022/05/04 01:26:46;;;;;;;3.28;1.80;;;9.60;99.90;;;;;;5036405;28;20033;-37
2022/05/04 01:29:14;;;;;;;12.40;1.77;;;9.60;99.90;;;;;;5036347;28;20493;-38
2022/05/04 01:31:40;;;;;;;9.52;1.83;;;9.70;99.90;;;;;;5036390;28;20025;-37
2022/05/04 01:34:05;;;;;;;7.72;1.63;;;9.60;99.90;;;;;;5035975;28;20052;-37
2022/05/04 01:36:31;;;;;;;8.07;1.67;;;9.60;99.90;;;;;;5036213;28;20021;-37
2022/05/04 01:38:56;;;;;;;9.63;1.77;;;9.60;99.90;;;;;;5036172;28;20021;-36
2022/05/04 01:44:07;;;;;;;5.82;1.98;;;9.60;99.90;;;;;;5036352;28;20064;-37
2022/05/04 01:46:32;;;;;;;6.00;1.73;;;9.60;99.90;;;;;;5036293;28;20022;-35
2022/05/04 01:48:58;;;;;;;2.25;1.30;;;9.60;99.90;;;;;;5035997;28;20064;-30
2022/05/04 01:51:24;;;;;;;6.85;1.80;;;9.60;99.90;;;;;;5036207;28;20048;-30
2022/05/04 01:53:49;;;;;;;4.47;1.63;;;9.60;99.90;;;;;;5035795;28;20565;-29
2022/05/04 01:56:15;;;;;;;4.75;1.63;;;9.60;99.90;;;;;;5035851;28;20022;-30
2022/05/04 01:58:41;;;;;;;4.55;1.73;;;9.60;99.90;;;;;;5035824;28;20025;-31
2022/05/04 02:01:07;;;;;;;13.25;1.92;;;9.60;99.90;;;;;;5035738;28;20061;-32
2022/05/04 02:03:33;;;;;;;4.93;1.75;;;9.60;99.90;;;;;;5035687;28;20044;-30
2022/05/04 02:05:58;;;;;;;3.83;1.80;;;9.60;99.90;;;;;;5035729;28;20116;-32
2022/05/04 02:08:24;;;;;;;3.53;1.58;;;9.60;99.90;;;;;;5035590;28;20029;-42
2022/05/04 02:10:50;;;;;;;4.05;1.33;;;9.50;99.90;;;;;;5035578;28;20034;-30
2022/05/04 02:13:16;;;;;;;6.93;2.70;;;9.60;99.90;;;;;;5034396;28;20037;-32
2022/05/04 02:15:41;;;;;;;7.45;2.30;;;9.50;99.90;;;;;;5035435;28;20033;-32
2022/05/04 02:18:07;;;;;;;1.23;1.13;;;9.50;99.90;;;;;;5035472;28;20393;-38
2022/05/04 02:20:33;;;;;;;6.20;1.90;;;9.50;99.90;;;;;;5035268;28;20040;-30
2022/05/04 02:22:58;;;;;;;8.68;2.13;;;9.40;99.90;;;;;;5035636;28;20021;-30
2022/05/04 02:25:24;;;;;;;8.60;1.65;;;9.50;99.90;;;;;;5035329;28;20029;-35
2022/05/04 02:27:49;;;;;;;8.32;2.00;;;9.40;99.90;;;;;;5035606;28;20091;-38
2022/05/04 02:30:15;;;;;;;8.30;1.90;;;9.40;99.90;;;;;;5035527;28;20490;-30
2022/05/04 02:32:43;;;;;;;8.45;2.00;;;9.40;99.90;;;;;;5035140;28;20025;-28
2022/05/04 02:37:57;;;;;;;8.75;2.08;;;9.40;99.90;;;;;;5035080;28;20500;-30
2022/05/04 02:40:24;;;;;;;6.60;2.03;;;9.30;99.90;;;;;;5035253;28;20036;-33
2022/05/04 02:42:49;;;;;;;7.80;1.93;;;9.20;99.90;;;;;;5035059;28;20022;-37
2022/05/04 02:45:15;;;;;;;5.35;1.83;;;9.30;99.90;;;;;;5035020;28;20037;-36
2022/05/04 02:47:41;;;;;;;10.27;2.33;;;9.30;99.90;;;;;;5034891;28;20083;-37
2022/05/04 02:50:07;;;;;;;4.72;2.03;;;9.20;99.90;;;;;;5034836;28;20029;-36
2022/05/04 02:52:33;;;;;;;3.50;1.80;;;9.20;99.90;;;;;;5033492;28;20111;-37
2022/05/04 02:54:58;;;;;;;6.03;1.85;;;9.10;99.90;;;;;;5034789;28;20029;-38
2022/05/04 02:57:24;;;;;;;6.10;1.45;;;9.10;99.90;;;;;;5033693;28;20109;-38
2022/05/04 02:59:50;;;;;;;6.68;2.13;;;9.10;99.90;;;;;;5034631;28;20032;-38
2022/05/04 03:02:28;;;;;;;7.18;2.10;;;9.00;99.90;;;;;;5034574;28;20021;-39
2022/05/04 03:05:02;;;;;;;3.08;1.60;;;9.00;99.90;;;;;;5034659;28;20454;-50
2022/05/04 03:07:28;;;;;;;6.60;1.88;;;8.90;99.90;;;;;;5034554;28;20034;-37
2022/05/04 03:09:55;;;;;;;6.82;1.80;;;8.90;99.90;;;;;;5034474;28;20493;-44
2022/05/04 03:12:21;;;;;;;6.33;2.10;;;8.80;99.90;;;;;;5034432;28;20053;-41
2022/05/04 03:14:47;;;;;;;7.68;2.20;;;8.80;99.90;;;;;;5034353;28;20033;-37
2022/05/04 03:17:13;;;;;;;2.38;1.42;;;8.70;99.90;;;;;;5034383;28;20462;-36
2022/05/04 03:19:38;;;;;;;8.50;2.13;;;8.70;99.90;;;;;;5034314;28;20366;-37
2022/05/04 03:22:05;;;;;;;6.45;1.70;;;8.70;99.90;;;;;;5034514;28;20032;-37
2022/05/04 03:24:31;;;;;;;4.63;2.10;;;8.70;99.90;;;;;;5034184;28;20567;-37
2022/05/04 03:26:57;;;;;;;6.65;2.25;;;8.70;99.90;;;;;;5033020;28;20057;-55
2022/05/04 03:29:22;;;;;;;10.23;2.10;;;8.70;99.90;;;;;;5034112;28;20041;-38
2022/05/04 03:31:48;;;;;;;9.23;2.08;;;8.70;99.90;;;;;;5033993;28;20401;-37
2022/05/04 03:34:14;;;;;;;10.38;2.03;;;8.70;99.90;;;;;;5034096;28;20025;-37
2022/05/04 03:36:39;;;;;;;6.38;1.98;;;8.70;99.90;;;;;;5034034;28;20392;-37
2022/05/04 03:39:06;;;;;;;8.35;1.70;;;8.70;99.90;;;;;;5034137;28;20021;-38
2022/05/04 03:41:31;;;;;;;5.70;2.13;;;8.70;99.90;;;;;;5033893;28;20478;-38
2022/05/04 03:43:57;;;;;;;2.20;1.77;;;8.70;99.90;;;;;;5033806;28;20094;-37
2022/05/04 03:46:25;;;;;;;8.18;2.03;;;8.70;99.90;;;;;;5033808;28;20056;-36
2022/05/04 03:48:58;;;;;;;9.82;2.25;;;8.70;99.90;;;;;;5033802;28;20523;-38
2022/05/04 03:51:24;;;;;;;5.35;1.90;;;8.60;99.90;;;;;;5032791;28;20022;-38
2022/05/04 03:53:51;;;;;;;7.93;2.00;;;8.60;99.90;;;;;;5033920;28;20377;-38
2022/05/04 03:56:18;;;;;;;5.53;1.70;;;8.50;99.90;;;;;;5033896;28;20033;-36
2022/05/04 03:58:45;;;;;;;6.65;2.28;;;8.50;99.90;;;;;;5032077;28;20118;-37
2022/05/04 04:01:11;;;;;;;4.82;2.00;;;8.50;99.90;;;;;;5033616;28;20030;-37
2022/05/04 04:03:37;;;;;;;6.75;2.47;;;8.40;99.90;;;;;;5033468;28;20037;-37
2022/05/04 04:06:03;;;;;;;10.80;1.75;;;8.40;99.90;;;;;;5033511;28;20029;-36
2022/05/04 04:08:29;;;;;;;4.63;2.17;;;8.40;99.90;;;;;;5033427;28;20025;-36
2022/05/04 04:10:54;;;;;;;5.68;2.67;;;8.30;99.90;;;;;;5033425;28;20041;-38
2022/05/04 04:13:21;;;;;;;8.30;1.75;;;8.30;99.90;;;;;;5033073;28;20111;-37
2022/05/04 04:15:47;;;;;;;11.23;2.40;;;8.30;99.90;;;;;;5033424;28;20040;-37
2022/05/04 04:18:13;;;;;;;7.88;2.17;;;8.30;99.90;;;;;;5033350;28;20450;-37
2022/05/04 04:23:23;;;;;;;9.10;2.05;;;8.20;99.90;;;;;;5033534;28;20055;-31
2022/05/04 04:25:49;;;;;;;3.20;1.65;;;8.10;99.90;;;;;;5033256;28;20108;-30
2022/05/04 04:28:14;;;;;;;7.70;2.22;;;8.10;99.90;;;;;;5033224;28;20040;-32
2022/05/04 04:30:40;;;;;;;6.45;2.85;;;8.10;99.90;;;;;;5033190;28;20072;-29
2022/05/04 04:33:06;;;;;;;4.60;2.33;;;8.00;99.90;;;;;;5033101;28;20033;-35
2022/05/04 04:35:33;;;;;;;6.68;2.08;;;8.00;99.90;;;;;;5033011;28;20037;-47
2022/05/04 04:37:59;;;;;;;3.92;1.95;;;8.00;99.90;;;;;;5032868;28;20105;-29
2022/05/04 04:40:25;;;;;;;7.53;2.30;;;8.00;99.90;;;;;;5032112;28;20075;-33
2022/05/04 04:42:51;;;;;;;6.20;2.38;;;7.90;99.90;;;;;;5033308;28;20053;-32
2022/05/04 04:45:17;;;;;;;4.45;2.15;;;7.90;99.90;;;;;;5033047;28;20033;-30
2022/05/04 04:47:44;;;;;;;6.85;2.65;;;7.90;99.90;;;;;;5033292;28;20148;-31
2022/05/04 04:50:10;;;;;;;8.15;2.53;;;7.90;99.90;;;;;;5033095;28;20513;-31
2022/05/04 04:52:36;;;;;;;5.10;2.08;;;8.00;99.90;;;;;;5032933;28;20033;-36
2022/05/04 04:55:01;;;;;;;6.93;2.58;;;7.90;99.90;;;;;;5032918;28;20040;-33
2022/05/04 04:57:27;;;;;;;5.53;2.47;;;8.00;99.90;;;;;;5032914;28;20029;-31
2022/05/04 04:59:52;;;;;;;17.58;3.25;;;8.00;99.90;;;;;;5032919;28;20033;-30
2022/05/04 05:02:18;;;;;;;6.38;2.88;;;8.00;99.90;;;;;;5032816;28;20040;-33
2022/05/04 05:04:44;;;;;;;9.63;2.63;;;8.00;99.90;;;;;;5032821;28;20473;-33
2022/05/04 05:07:09;;;;;;;8.13;2.20;;;8.10;99.90;;;;;;5032862;28;20029;-34
2022/05/04 05:09:35;;;;;;;4.35;2.28;;;8.10;99.90;;;;;;5032877;28;20034;-33
2022/05/04 05:12:00;;;;;;;9.95;2.90;;;8.10;99.90;;;;;;5032565;28;20029;-31
2022/05/04 05:17:10;;;;;;;5.32;2.15;;;8.20;99.90;;;;;;5033047;28;20401;-29
2022/05/04 05:19:35;;;;;;;9.38;2.78;;;8.30;99.90;;;;;;5032737;28;20025;-30
2022/05/04 05:22:01;;;;;;;8.80;2.58;;;8.40;99.90;;;;;;5032542;28;20025;-29
2022/05/04 05:24:26;;;;;;;11.73;2.92;;;8.40;99.90;;;;;;5032648;28;20493;-33
2022/05/04 05:26:52;;;;;;;7.90;2.63;;;8.50;99.90;;;;;;5032532;28;20033;-29
2022/05/04 05:29:18;;;;;;;8.75;2.65;;;8.60;99.90;;;;;;5032527;28;20103;-30
2022/05/04 05:31:43;;;;;;;17.20;3.97;;;8.70;99.90;;;;;;5032533;28;20030;-41
2022/05/04 05:34:09;;;;;;;6.65;2.13;;;8.80;99.90;;;;;;5032384;28;20022;-38
2022/05/04 05:36:34;;;;;;;7.40;2.58;;;8.80;99.90;;;;;;5031245;28;20068;-36
2022/05/04 05:39:00;;;;;;;5.70;2.08;;;8.90;99.90;;;;;;5032442;28;20478;-38
2022/05/04 05:41:25;;;;;;;7.47;2.33;;;9.00;99.90;;;;;;5032456;28;20026;-37
2022/05/04 05:43:52;;;;;;;9.32;2.33;;;9.10;99.90;;;;;;5032350;28;20033;-37
2022/05/04 05:46:18;;;;;;;4.93;2.08;;;9.20;99.90;;;;;;5032424;28;20034;-37
2022/05/04 05:48:43;;;;;;;5.43;1.85;;;9.20;99.90;;;;;;5033037;28;20044;-38
2022/05/04 05:51:09;;;;;;;8.77;2.22;;;9.30;99.90;;;;;;5036311;28;20029;-37
2022/05/04 05:53:35;;;;;;;6.60;2.95;;;9.40;99.90;;;;;;5035922;28;20403;-37
2022/05/04 05:56:00;;;;;;;9.43;2.13;;;9.60;99.90;;;;;;5035990;28;20025;-32
2022/05/04 05:58:26;;;;;;;8.70;2.30;;;9.70;99.90;;;;;;5035935;28;20146;-47
2022/05/04 06:00:52;;;;;;;12.20;2.95;;;9.90;99.90;;;;;;5035908;28;20112;-37
2022/05/04 06:03:18;;;;;;;6.90;2.03;;;10.00;99.90;;;;;;5035736;28;20520;-37
2022/05/04 06:05:44;;;;;;;7.90;1.98;;;9.90;99.90;;;;;;5035723;28;20402;-37
2022/05/04 06:08:10;;;;;;;5.18;2.45;;;9.90;99.90;;;;;;5035719;28;20100;-38
2022/05/04 06:10:37;;;;;;;12.10;3.53;;;9.90;99.90;;;;;;5035609;28;20043;-46
2022/05/04 06:13:03;;;;;;;14.07;2.28;;;10.00;99.90;;;;;;5035534;28;20052;-38
2022/05/04 06:15:29;;;;;;;4.28;1.83;;;10.10;99.90;;;;;;5035565;28;20559;-65
2022/05/04 06:17:55;;;;;;;6.45;2.17;;;10.40;99.90;;;;;;5035667;28;20021;-37
2022/05/04 06:20:22;;;;;;;8.10;2.30;;;10.50;99.90;;;;;;5035467;28;20497;-37
2022/05/04 06:22:48;;;;;;;11.80;2.00;;;10.50;99.90;;;;;;5035678;28;20385;-37
2022/05/04 06:25:13;;;;;;;8.07;1.95;;;10.60;99.90;;;;;;5035615;28;20500;-37
2022/05/04 06:27:39;;;;;;;6.53;2.47;;;10.60;99.90;;;;;;5034345;28;20065;-37
2022/05/04 06:35:34;;;;;;;10.05;2.67;;;11.10;99.90;;;;;;5035073;28;20358;-36
2022/05/04 06:37:59;;;;;;;3.45;2.22;;;11.20;99.90;;;;;;5035009;28;20034;-36
2022/05/04 06:40:25;;;;;;;7.22;2.35;;;11.30;99.90;;;;;;5033793;28;20037;-37
2022/05/04 06:42:50;;;;;;;7.25;2.35;;;11.40;99.90;;;;;;5034967;28;20064;-37
2022/05/04 06:45:16;;;;;;;7.10;2.33;;;11.70;99.90;;;;;;5034866;28;20434;-36
2022/05/04 06:47:42;;;;;;;11.23;1.80;;;11.80;99.90;;;;;;5034908;28;20028;-38
2022/05/04 06:50:08;;;;;;;5.07;2.10;;;11.90;99.90;;;;;;5034889;28;20057;-36
2022/05/04 06:52:34;;;;;;;5.03;1.70;;;11.80;99.90;;;;;;5034877;28;20024;-37
2022/05/04 06:55:00;;;;;;;3.35;1.70;;;11.90;99.90;;;;;;5034674;28;20120;-37
2022/05/04 06:57:26;;;;;;;6.32;2.10;;;12.00;99.90;;;;;;5034661;28;20040;-36
2022/05/04 06:59:51;;;;;;;4.30;1.80;;;12.20;99.90;;;;;;5034566;28;20147;-37
2022/05/04 07:02:17;;;;;;;7.80;1.60;;;12.40;99.90;;;;;;5034599;28;20057;-38
2022/05/04 07:04:42;;;;;;;5.22;1.90;;;12.60;99.90;;;;;;5034562;28;20478;-45
2022/05/04 07:07:08;;;;;;;11.48;1.73;;;12.80;99.90;;;;;;5034560;28;20065;-36
2022/05/04 07:09:34;;;;;;;6.72;2.13;;;13.10;99.90;;;;;;5034482;28;20579;-37
2022/05/04 07:11:59;;;;;;;7.68;2.10;;;13.00;99.90;;;;;;5034264;28;20110;-36
2022/05/04 07:14:25;;;;;;;6.60;1.80;;;13.10;99.90;;;;;;5034290;28;20033;-37
2022/05/04 07:16:51;;;;;;;5.40;2.42;;;13.10;99.90;;;;;;5034326;28;20021;-37
2022/05/04 07:19:17;;;;;;;4.80;1.80;;;13.10;99.90;;;;;;5034339;28;20065;-63
2022/05/04 07:21:43;;;;;;;4.93;1.90;;;13.10;99.90;;;;;;5034251;28;20033;-38
2022/05/04 07:24:11;;;;;;;7.57;1.77;;;13.10;99.90;;;;;;5034356;28;20489;-31
2022/05/04 07:26:37;;;;;;;3.45;1.50;;;13.10;99.90;;;;;;5034172;28;20469;-31
2022/05/04 07:29:02;;;;;;;11.30;2.65;;;13.10;99.90;;;;;;5034274;28;20494;-33
2022/05/04 07:31:28;;;;;;;6.38;2.30;;;13.10;99.90;;;;;;5033931;28;20030;-30
2022/05/04 07:33:54;;;;;;;11.73;2.50;;;13.20;99.90;;;;;;5034026;28;20105;-32
2022/05/04 07:36:19;;;;;;;12.27;2.55;;;13.40;99.90;;;;;;5034077;28;20481;-29
2022/05/04 07:38:45;;;;;;;4.50;2.38;;;13.60;99.90;;;;;;5033993;28;20021;-28
2022/05/04 07:43:55;;;;;;;7.40;2.30;;;13.30;99.90;;;;;;5033838;28;20044;-29
2022/05/04 07:46:21;;;;;;;11.18;2.35;;;12.90;99.90;;;;;;5033603;28;20108;-32
2022/05/04 07:48:46;;;;;;;11.38;3.15;;;12.60;99.90;;;;;;5033870;28;20037;-29
2022/05/04 07:51:12;;;;;;;12.15;3.08;;;12.60;99.90;;;;;;5032253;28;20498;-31
2022/05/04 07:53:37;;;;;;;10.48;2.97;;;12.60;99.90;;;;;;5032121;28;20080;-29
2022/05/04 07:56:04;;;;;;;5.53;2.47;;;12.50;99.90;;;;;;5033491;28;20057;-30
2022/05/04 07:58:29;;;;;;;14.02;2.90;;;12.80;99.90;;;;;;5033495;28;20021;-31
2022/05/04 08:06:23;;;;;;;11.18;2.78;;;13.00;99.90;;;;;;5033461;28;20407;-34
2022/05/04 08:08:49;;;;;;;8.00;3.25;;;12.90;99.90;;;;;;5033549;28;20041;-29
2022/05/04 08:11:14;;;;;;;9.75;3.03;;;12.90;99.90;;;;;;5031349;28;20036;-36
2022/05/04 08:13:40;;;;;;;6.72;2.95;;;12.80;99.90;;;;;;5032904;28;20041;-33
2022/05/04 08:16:07;;;;;;;12.77;3.10;;;12.70;99.90;;;;;;5033255;28;20025;-28
2022/05/04 08:18:33;;;;;;;10.82;3.22;;;12.90;99.90;;;;;;5033148;28;20025;-31
2022/05/04 08:21:01;;;;;;;5.93;3.10;;;13.20;99.90;;;;;;5033265;28;20030;-33
2022/05/04 08:23:27;;;;;;;11.70;3.60;;;13.60;99.90;;;;;;5033395;28;20036;-28
2022/05/04 08:25:52;;;;;;;6.07;3.05;;;13.90;99.90;;;;;;5033092;28;20037;-32
2022/05/04 08:28:19;;;;;;;11.00;3.28;;;13.70;99.90;;;;;;5033281;28;20030;-36
2022/05/04 08:30:45;;;;;;;8.32;3.00;;;14.00;99.90;;;;;;5031782;28;20029;-30
2022/05/04 08:33:10;;;;;;;16.08;3.45;;;14.00;99.90;;;;;;5032990;28;20028;-35
2022/05/04 08:35:36;;;;;;;7.85;3.72;;;13.70;99.90;;;;;;5032873;28;20068;-48
2022/05/04 08:38:02;;;;;;;15.10;4.32;;;13.50;99.90;;;;;;5033061;28;20108;-37
2022/05/04 08:40:29;;;;;;;14.57;4.63;;;13.10;99.90;;;;;;5033361;28;20060;-37
2022/05/04 08:42:57;;;;;;;11.70;3.97;;;12.60;99.90;;;;;;5033000;28;20033;-35
2022/05/04 08:45:23;;;;;;;11.13;3.88;;;12.70;99.90;;;;;;5031422;28;20037;-29
2022/05/04 08:47:49;;;;;;;4.07;2.88;;;12.90;99.90;;;;;;5032982;28;20116;-28
2022/05/04 08:50:17;;;;;;;7.97;3.70;;;13.20;99.90;;;;;;5033029;28;20091;-30
2022/05/04 08:52:53;;;;;;;12.65;3.25;;;13.60;99.90;;;;;;5033262;28;20604;-31
2022/05/04 08:55:20;;;;;;;16.02;4.20;;;13.90;99.90;;;;;;5032772;28;20094;-31
2022/05/04 08:57:46;;;;;;;7.05;3.33;;;14.00;99.90;;;;;;5032786;28;20500;-32
2022/05/04 09:00:12;;;;;;;8.32;3.63;;;14.00;99.90;;;;;;5033010;28;20025;-47
2022/05/04 09:02:38;;;;;;;10.75;3.22;;;14.10;99.90;;;;;;5031567;28;20041;-38
2022/05/04 09:05:19;;;;;;;13.35;3.63;;;14.50;99.90;;;;;;5032786;28;20026;-37
2022/05/04 09:07:47;;;;;;;8.95;3.33;;;14.30;99.90;;;;;;5033098;28;20541;-37
2022/05/04 09:10:26;;;;;;;7.38;3.25;;;14.40;99.90;;;;;;5031504;28;20501;-37
2022/05/04 09:12:54;;;;;;;9.27;3.13;;;14.60;99.90;;;;;;5032707;28;20441;-38
2022/05/04 09:15:23;;;;;;;13.07;3.42;;;15.10;99.90;;;;;;5032518;28;20033;-37
2022/05/04 09:18:04;;;;;;;15.57;3.03;;;15.70;99.10;;;;;;5032575;28;20029;-38
2022/05/04 09:20:51;;;;;;;8.80;2.78;;;15.70;99.40;;;;;;5032733;28;20481;-39
2022/05/04 09:23:30;;;;;;;;;;;16.00;98.90;;;;;;5034827;28;20107;-38
2022/05/04 09:26:01;;;;;;;11.02;3.08;;;16.10;98.10;;;;;;5035026;28;19920;-38
2022/05/04 09:28:28;;;;;;;5.68;3.28;;;16.20;97.70;;;;;;5036424;28;20041;-38
2022/05/04 09:30:59;;;;;;;4.65;2.95;;;16.10;97.90;;;;;;5036287;28;20060;-37
2022/05/04 09:33:30;;;;;;;5.75;3.13;;;16.80;97.60;;;;;;5036186;28;20073;-36
2022/05/04 09:35:57;;;;;;;5.38;2.80;;;17.80;96.40;;;;;;5036160;28;20104;-39
2022/05/04 09:46:47;;;;;;;7.95;3.20;;;17.50;95.80;;;;;;5036021;28;20094;-39
2022/05/04 09:49:20;;;;;;;7.07;2.83;;;17.20;96.00;;;;;;5036231;28;20030;-37
2022/05/04 09:51:54;;;;;;;5.22;3.88;;;17.10;96.70;;;;;;5036217;28;20037;-29
2022/05/04 09:54:27;;;;;;;6.40;3.55;;;16.40;96.60;;;;;;5035822;28;20030;-29
2022/05/04 09:56:55;;;;;;;7.95;3.80;;;16.60;95.90;;;;;;5035815;28;20033;-31
2022/05/04 09:59:26;;;;;;;10.65;4.00;;;16.40;97.10;;;;;;5036025;28;20021;-30
2022/05/04 10:01:54;;;;;;;4.55;2.97;;;16.30;96.70;;;;;;5035780;28;20500;-32
2022/05/04 10:04:20;;;;;;;4.53;3.13;;;16.60;97.00;;;;;;5035703;28;20021;-33
2022/05/04 10:06:53;;;;;;;8.70;2.80;;;16.70;96.50;;;;;;5035956;28;20025;-29
2022/05/04 10:09:20;;;;;;;9.75;3.05;;;17.00;96.60;;;;;;5035668;28;20029;-30
2022/05/04 10:11:46;;;;;;;4.20;2.87;;;17.00;97.20;;;;;;5035552;28;20033;-32
2022/05/04 10:14:15;;;;;;;6.95;3.35;;;16.20;96.80;;;;;;5035268;28;20652;-32
2022/05/04 10:16:56;;;;;;;7.32;3.60;;;16.10;97.20;;;;;;5034149;28;20079;-48
2022/05/04 10:19:42;;;;;;;9.50;3.47;;;15.50;97.60;;;;;;5035466;28;20049;-38
2022/05/04 10:22:14;;;;;;;10.00;4.47;;;15.70;97.20;;;;;;5035664;28;20017;-40
2022/05/04 10:24:41;;;;;;;6.28;3.42;;;15.80;97.90;;;;;;5035589;28;20069;-38
2022/05/04 10:27:17;;;;;;;12.68;4.22;;;15.50;97.70;;;;;;5035307;28;20490;-39
2022/05/04 10:32:27;;;;;;;8.07;3.45;;;15.80;97.50;;;;;;5035306;28;20405;-44
2022/05/04 10:35:32;;;;;;;10.40;3.58;;;15.50;98.30;;;;;;5034174;28;20029;-38
2022/05/04 10:37:58;;;;;;;6.43;3.00;;;15.30;98.10;;;;;;5032968;28;20436;-38
2022/05/04 10:40:40;;;;;;;9.18;3.83;;;15.20;98.30;;;;;;5034545;28;20029;-38
2022/05/04 10:43:31;;;;;;;9.68;3.47;;;15.60;98.00;;;;;;5035634;28;20025;-37
2022/05/04 10:46:07;;;;;;;9.05;3.92;;;15.90;97.90;;;;;;5035016;28;20025;-46
2022/05/04 10:48:33;;;;;;;7.35;3.85;;;15.40;98.30;;;;;;5035146;28;20530;-38
2022/05/04 10:51:18;;;;;;;9.07;4.18;;;15.40;97.90;;;;;;5034852;28;20045;-38
2022/05/04 10:53:49;;;;;;;11.27;3.60;;;15.50;98.10;;;;;;5034982;28;20083;-36
2022/05/04 10:56:20;;;;;;;6.47;3.67;;;15.70;97.90;;;;;;5034694;28;20111;-37
2022/05/04 10:58:52;;;;;;;5.88;4.07;;;15.80;97.60;;;;;;5034947;28;20473;-37
2022/05/04 11:01:23;;;;;;;5.35;3.58;;;15.60;97.70;;;;;;5034887;28;20378;-38
2022/05/04 11:03:57;;;;;;;11.95;4.18;;;15.50;98.10;;;;;;5034796;28;20421;-38
2022/05/04 11:06:32;;;;;;;6.30;3.58;;;15.40;99.10;;;;;;5034623;28;20028;-38
2022/05/04 11:09:21;;;;;;;9.90;4.40;;;15.30;98.80;;;;;;5034371;28;20075;-38
2022/05/04 11:11:49;;;;;;;13.57;3.90;;;15.10;98.80;;;;;;5034462;28;20036;-36
2022/05/04 11:14:17;;;;;;;9.70;4.35;;;14.90;99.60;;;;;;5034015;28;20037;-36
2022/05/04 11:16:43;;;;;;;10.52;4.30;;;15.10;98.90;;;;;;5032783;28;20033;-38
2022/05/04 11:19:12;;;;;;;9.30;3.42;;;15.20;98.50;;;;;;5034230;28;20381;-40
2022/05/04 11:21:39;;;;;;;12.13;5.22;;;15.40;98.60;;;;;;5034065;28;20021;-47
2022/05/04 11:24:10;;;;;;;11.25;4.60;;;15.90;97.90;;;;;;5034032;28;20030;-39
2022/05/04 11:26:39;;;;;;;9.13;3.97;;;16.40;96.90;;;;;;5034033;28;20018;-38
2022/05/04 11:29:10;;;;;;;10.00;3.92;;;16.40;97.30;;;;;;5034190;28;20083;-38
2022/05/04 11:31:36;;;;;;;7.80;4.63;;;16.60;97.30;;;;;;5034172;28;20529;-37
2022/05/04 11:34:02;;;;;;;10.02;4.90;;;16.40;97.50;;;;;;5033492;28;20429;-38
2022/05/04 11:36:28;;;;;;;8.32;3.65;;;16.40;97.60;;;;;;5033697;28;20017;-38
2022/05/04 11:38:54;;;;;;;18.50;4.47;;;16.40;97.80;;;;;;5033777;28;20394;-37
2022/05/04 11:41:20;;;;;;;13.35;4.40;;;16.40;97.80;;;;;;5033682;28;20025;-37
2022/05/04 11:43:51;;;;;;;10.45;4.88;;;16.50;97.70;;;;;;5033583;28;20088;-41
2022/05/04 11:46:17;;;;;;;6.03;4.22;;;16.80;97.50;;;;;;5033574;28;20049;-39
2022/05/04 11:48:45;;;;;;;11.25;4.82;;;16.90;97.60;;;;;;5033928;28;20029;-36
2022/05/04 11:51:13;;;;;;;12.60;4.80;;;16.60;97.00;;;;;;5033870;28;20481;-37
2022/05/04 11:53:40;;;;;;;11.13;4.50;;;16.40;97.50;;;;;;5033416;28;20486;-37
2022/05/04 11:56:07;;;;;;;5.63;4.55;;;16.60;97.50;;;;;;5033499;28;20025;-36
2022/05/04 11:58:34;;;;;;;16.95;5.38;;;17.10;97.00;;;;;;5033496;28;20104;-30
2022/05/04 12:01:02;;;;;;;11.18;4.78;;;17.50;96.50;;;;;;5033438;28;20026;-29
2022/05/04 12:03:30;;;;;;;17.92;4.85;;;17.70;96.90;;;;;;5033327;28;20043;-31
2022/05/04 12:05:57;;;;;;;11.52;4.50;;;17.50;96.40;;;;;;5033532;28;20044;-30
2022/05/04 12:08:23;;;;;;;11.98;6.78;;;17.20;96.40;;;;;;5033426;28;20409;-32
2022/05/04 12:10:50;;;;;;;10.32;4.43;;;16.90;97.00;;;;;;5033320;28;20036;-32
2022/05/04 12:13:23;;;;;;;10.15;4.55;;;17.10;96.80;;;;;;5033197;28;20089;-33
2022/05/04 12:15:55;;;;;;;14.02;4.45;;;17.20;96.80;;;;;;5033573;28;20132;-46
2022/05/04 12:18:29;;;;;;;13.23;4.30;;;17.10;96.30;;;;;;5033279;28;20034;-32
2022/05/04 12:20:56;;;;;;;9.02;4.10;;;17.00;96.40;;;;;;5033556;28;20017;-31
2022/05/04 12:23:22;;;;;;;8.98;4.10;;;16.80;96.90;;;;;;5033108;28;20476;-32
2022/05/04 12:25:48;;;;;;;11.30;4.75;;;17.00;97.10;;;;;;5033189;28;20028;-32
2022/05/04 12:28:15;;;;;;;10.02;4.70;;;17.10;96.30;;;;;;5033507;28;20030;-31
2022/05/04 12:33:30;;;;;;;8.85;4.70;;;17.20;96.60;;;;;;5033066;28;20133;-34
2022/05/04 12:36:02;;;;;;;9.05;4.05;;;17.60;95.80;;;;;;5033346;28;20103;-33
2022/05/04 12:38:28;;;;;;;7.65;4.03;;;17.80;95.60;;;;;;5032972;28;20021;-31
2022/05/04 12:40:57;;;;;;;8.15;3.63;;;17.80;95.00;;;;;;5032982;28;20056;-29
2022/05/04 12:43:24;;;;;;;12.02;3.92;;;18.00;94.90;;;;;;5033206;28;20386;-34
2022/05/04 12:45:53;;;;;;;11.55;4.32;;;17.90;94.80;;;;;;5031752;28;20482;-32
2022/05/04 12:48:24;;;;;;;9.13;3.75;;;17.90;94.40;;;;;;5032899;28;20052;-33
2022/05/04 12:50:51;;;;;;;9.20;4.35;;;18.00;95.10;;;;;;5033054;28;20409;-30
2022/05/04 12:53:17;;;;;;;9.65;3.95;;;18.20;94.80;;;;;;5032675;28;20075;-32
2022/05/04 12:58:41;;;;;;;14.73;4.78;;;18.20;95.00;;;;;;5033949;28;20041;-32
2022/05/04 13:01:07;;;;;;;8.32;4.05;;;18.50;94.50;;;;;;5036775;28;20478;-33
2022/05/04 13:03:33;;;;;;;6.28;3.35;;;18.60;93.70;;;;;;5036832;28;20026;-41
2022/05/04 13:05:59;;;;;;;13.23;4.20;;;18.70;93.70;;;;;;5036755;28;20033;-31
2022/05/04 13:08:25;;;;;;;10.63;4.53;;;18.60;94.30;;;;;;5036919;28;20470;-33
2022/05/04 13:10:53;;;;;;;15.15;4.20;;;18.80;94.30;;;;;;5036910;28;20101;-31
2022/05/04 13:13:20;;;;;;;6.70;3.83;;;19.00;93.20;;;;;;5036441;28;20057;-35
2022/05/04 13:15:47;;;;;;;;;;;18.90;93.40;;;;;;5037222;28;20022;-32
2022/05/04 13:18:13;;;;;;;7.63;3.88;;;18.40;93.80;;;;;;5036803;28;19916;-35
2022/05/04 13:20:38;;;;;;;8.15;4.07;;;18.00;93.70;;;;;;5036666;28;20025;-31
2022/05/04 13:23:04;;;;;;;7.65;3.70;;;17.70;94.40;;;;;;5036456;28;20037;-34
2022/05/04 13:25:30;;;;;;;10.02;4.35;;;17.80;94.40;;;;;;5036631;28;20033;-29
2022/05/04 13:27:55;;;;;;;21.38;4.68;;;17.40;94.60;;;;;;5036620;28;20072;-31
2022/05/04 13:30:21;;;;;;;9.27;4.00;;;17.50;94.80;;;;;;5036258;28;20083;-30
2022/05/04 13:32:47;;;;;;;12.73;4.25;;;17.40;94.90;;;;;;5036286;28;20025;-31